Main page
METAR-TAF:

METAR-TAF

Airports :

Passo Rolle, Italy

latitude: 46-18N, longitude: 011-47E, elevation: 2004 m

Current weather observation

The report was made 26 minutes ago, at 13:55 UTC
Wind 14 kt from the East/Southeast
Temperature 14°C
Humidity 58%
Pressure 1028 hPa
Visibility 10 km or more
Scattered clouds at a height of 3000 ft

METAR: LIVR 281355Z 12014KT 9999 SCT030 14/06 Q1028 RMK SCT MON CLD SCT VIS MIN 9999

Time: 16:21 (14:21 UTC)


TAF: missing

Weather observations and forecasts of more than 4000 airports (METAR and TAF reports).

The available stations are represented by yellow and red dots on the map.

Hover mouse over dot to see the name of the station.

Then click to see weather observations and forecasts.

To change the map : click on the green buttons with a black cross to zoom in, on the green button with a dash to zoom out, or on the green arrows for adjacent maps.


METAR-TAF: